Terminal Aerodrome Forecast
Issued by NWS

Home | Current Version | Previous Version | Text Only | Print | Product List | Glossary On
Versions: 1 2 3 4 5 6 7 8 9 10 11 12 13 14 15 16 17 18 19 20 21 22 23 24 25 26 27 28 29 30
000
FTUS41 KBOX 162320
TAFACK
TAF
KACK 162320Z 1700/1724 28010KT P6SM SCT035
     FM170300 30013G25KT P6SM BKN040
     FM170700 33012G19KT P6SM SKC
     FM171800 35009KT P6SM SCT150
     FM171900 01008KT P6SM BKN140=

USA.gov is the U.S. government's official web portal to all federal, state and local government web resources and services.